Terminal Aerodrome Forecast
Issued by NWS

Home | Current Version | Previous Version | Text Only | Print | Product List | Glossary On
Versions: 1 2 3 4 5 6 7 8 9 10 11 12 13 14 15 16 17 18 19 20 21 22
867
FTUS41 KGYX 250835 AAA
TAFRKD
TAF AMD
KRKD 250835Z 2509/2606 03005KT P6SM OVC200
     FM251600 08012G20KT P6SM OVC025
     FM251800 09014G22KT 3SM -SN OVC015
     FM251900 09014G22KT 1SM -SN OVC015
     FM252100 09014G22KT 2SM -RA OVC005
     FM260100 15010G20KT 3SM BR OVC004
      AMD LTD TO CLD VIS AND WIND=

USA.gov is the U.S. government's official web portal to all federal, state and local government web resources and services.